sensor_id;sensor_type;location;lat;lon;timestamp;P1;durP1;ratioP1;P2;durP2;ratioP2
45039;SDS011;30778;53.574;7.770;2022-12-11T00:00:15;85.05;;;24.00;;
45039;SDS011;30778;53.574;7.770;2022-12-11T00:02:40;77.28;;;23.38;;
45039;SDS011;30778;53.574;7.770;2022-12-11T00:05:06;73.47;;;21.98;;
45039;SDS011;30778;53.574;7.770;2022-12-11T00:07:31;86.65;;;21.75;;
45039;SDS011;30778;53.574;7.770;2022-12-11T00:09:57;72.05;;;20.70;;
45039;SDS011;30778;53.574;7.770;2022-12-11T00:12:23;75.93;;;21.75;;
45039;SDS011;30778;53.574;7.770;2022-12-11T00:14:48;90.43;;;22.17;;
45039;SDS011;30778;53.574;7.770;2022-12-11T00:17:13;69.32;;;19.73;;
45039;SDS011;30778;53.574;7.770;2022-12-11T00:19:39;77.32;;;20.73;;
45039;SDS011;30778;53.574;7.770;2022-12-11T00:22:04;62.55;;;19.17;;
45039;SDS011;30778;53.574;7.770;2022-12-11T00:24:30;69.32;;;19.58;;
45039;SDS011;30778;53.574;7.770;2022-12-11T00:26:55;71.35;;;22.35;;
45039;SDS011;30778;53.574;7.770;2022-12-11T00:29:21;73.95;;;22.13;;
45039;SDS011;30778;53.574;7.770;2022-12-11T00:31:46;87.78;;;20.38;;
45039;SDS011;30778;53.574;7.770;2022-12-11T00:34:12;71.97;;;20.48;;
45039;SDS011;30778;53.574;7.770;2022-12-11T00:36:37;84.18;;;21.65;;
45039;SDS011;30778;53.574;7.770;2022-12-11T00:39:04;82.18;;;21.48;;
45039;SDS011;30778;53.574;7.770;2022-12-11T00:41:30;98.00;;;21.17;;
45039;SDS011;30778;53.574;7.770;2022-12-11T00:43:56;72.05;;;21.48;;
45039;SDS011;30778;53.574;7.770;2022-12-11T00:46:21;80.63;;;20.65;;
45039;SDS011;30778;53.574;7.770;2022-12-11T00:48:47;86.90;;;20.92;;
45039;SDS011;30778;53.574;7.770;2022-12-11T00:51:14;79.63;;;19.60;;
45039;SDS011;30778;53.574;7.770;2022-12-11T00:53:40;78.88;;;21.88;;
45039;SDS011;30778;53.574;7.770;2022-12-11T00:56:13;79.32;;;20.20;;
45039;SDS011;30778;53.574;7.770;2022-12-11T00:58:41;96.78;;;20.88;;
45039;SDS011;30778;53.574;7.770;2022-12-11T01:01:07;68.13;;;20.55;;
45039;SDS011;30778;53.574;7.770;2022-12-11T01:03:35;104.53;;;21.25;;
45039;SDS011;30778;53.574;7.770;2022-12-11T01:06:00;66.50;;;18.95;;
45039;SDS011;30778;53.574;7.770;2022-12-11T01:08:26;98.82;;;21.45;;
45039;SDS011;30778;53.574;7.770;2022-12-11T01:10:59;68.32;;;19.67;;
45039;SDS011;30778;53.574;7.770;2022-12-11T01:13:25;86.10;;;21.27;;
45039;SDS011;30778;53.574;7.770;2022-12-11T01:15:51;75.30;;;20.17;;
45039;SDS011;30778;53.574;7.770;2022-12-11T01:18:16;72.93;;;20.10;;
45039;SDS011;30778;53.574;7.770;2022-12-11T01:20:42;77.03;;;18.67;;
45039;SDS011;30778;53.574;7.770;2022-12-11T01:23:09;72.50;;;19.65;;
45039;SDS011;30778;53.574;7.770;2022-12-11T01:25:38;71.28;;;19.13;;
45039;SDS011;30778;53.574;7.770;2022-12-11T01:28:04;75.47;;;19.60;;
45039;SDS011;30778;53.574;7.770;2022-12-11T01:30:30;79.70;;;21.35;;
45039;SDS011;30778;53.574;7.770;2022-12-11T01:32:56;81.50;;;18.90;;
45039;SDS011;30778;53.574;7.770;2022-12-11T01:35:21;67.90;;;20.85;;
45039;SDS011;30778;53.574;7.770;2022-12-11T01:37:47;72.78;;;18.38;;
45039;SDS011;30778;53.574;7.770;2022-12-11T01:40:14;63.80;;;18.60;;
45039;SDS011;30778;53.574;7.770;2022-12-11T01:42:41;65.50;;;17.25;;
45039;SDS011;30778;53.574;7.770;2022-12-11T01:48:01;72.35;;;18.77;;
45039;SDS011;30778;53.574;7.770;2022-12-11T01:50:31;74.00;;;18.08;;
45039;SDS011;30778;53.574;7.770;2022-12-11T01:52:59;56.80;;;18.30;;
45039;SDS011;30778;53.574;7.770;2022-12-11T01:55:28;52.95;;;15.73;;
45039;SDS011;30778;53.574;7.770;2022-12-11T01:57:53;63.00;;;17.30;;
45039;SDS011;30778;53.574;7.770;2022-12-11T02:00:19;62.17;;;18.98;;
45039;SDS011;30778;53.574;7.770;2022-12-11T02:02:46;69.53;;;17.17;;
45039;SDS011;30778;53.574;7.770;2022-12-11T02:05:11;60.03;;;17.40;;
45039;SDS011;30778;53.574;7.770;2022-12-11T02:07:39;55.08;;;14.82;;
45039;SDS011;30778;53.574;7.770;2022-12-11T02:10:10;49.10;;;14.27;;
45039;SDS011;30778;53.574;7.770;2022-12-11T02:18:46;47.17;;;13.82;;
45039;SDS011;30778;53.574;7.770;2022-12-11T02:21:24;49.88;;;14.95;;
45039;SDS011;30778;53.574;7.770;2022-12-11T02:29:51;36.63;;;12.85;;
45039;SDS011;30778;53.574;7.770;2022-12-11T02:32:36;54.25;;;14.38;;
45039;SDS011;30778;53.574;7.770;2022-12-11T02:35:14;54.35;;;15.40;;
45039;SDS011;30778;53.574;7.770;2022-12-11T02:37:44;48.60;;;13.95;;
45039;SDS011;30778;53.574;7.770;2022-12-11T02:40:13;65.78;;;15.45;;
45039;SDS011;30778;53.574;7.770;2022-12-11T02:42:43;50.10;;;15.68;;
45039;SDS011;30778;53.574;7.770;2022-12-11T02:45:12;49.42;;;14.95;;
45039;SDS011;30778;53.574;7.770;2022-12-11T02:47:39;57.10;;;15.02;;
45039;SDS011;30778;53.574;7.770;2022-12-11T02:50:09;45.53;;;13.13;;
45039;SDS011;30778;53.574;7.770;2022-12-11T02:52:39;45.08;;;12.38;;
45039;SDS011;30778;53.574;7.770;2022-12-11T02:55:07;50.80;;;12.15;;
45039;SDS011;30778;53.574;7.770;2022-12-11T02:57:37;50.90;;;13.27;;
45039;SDS011;30778;53.574;7.770;2022-12-11T03:00:08;39.33;;;12.70;;
45039;SDS011;30778;53.574;7.770;2022-12-11T03:02:34;46.55;;;13.38;;
45039;SDS011;30778;53.574;7.770;2022-12-11T03:05:01;46.80;;;13.30;;
45039;SDS011;30778;53.574;7.770;2022-12-11T03:07:27;40.58;;;12.50;;
45039;SDS011;30778;53.574;7.770;2022-12-11T03:09:56;40.80;;;12.30;;
45039;SDS011;30778;53.574;7.770;2022-12-11T03:12:24;43.22;;;11.85;;
45039;SDS011;30778;53.574;7.770;2022-12-11T03:14:57;34.85;;;11.35;;
45039;SDS011;30778;53.574;7.770;2022-12-11T03:20:10;32.10;;;11.38;;
45039;SDS011;30778;53.574;7.770;2022-12-11T03:22:38;36.28;;;12.05;;
45039;SDS011;30778;53.574;7.770;2022-12-11T03:30:30;34.15;;;10.45;;
45039;SDS011;30778;53.574;7.770;2022-12-11T03:33:05;48.90;;;11.88;;
45039;SDS011;30778;53.574;7.770;2022-12-11T03:35:37;33.60;;;11.43;;
45039;SDS011;30778;53.574;7.770;2022-12-11T03:38:10;44.40;;;11.77;;
45039;SDS011;30778;53.574;7.770;2022-12-11T03:40:41;36.30;;;10.32;;
45039;SDS011;30778;53.574;7.770;2022-12-11T03:43:10;31.02;;;10.15;;
45039;SDS011;30778;53.574;7.770;2022-12-11T03:45:36;42.53;;;12.32;;
45039;SDS011;30778;53.574;7.770;2022-12-11T03:48:04;37.03;;;11.70;;
45039;SDS011;30778;53.574;7.770;2022-12-11T03:50:31;38.05;;;10.27;;
45039;SDS011;30778;53.574;7.770;2022-12-11T03:52:59;37.70;;;11.35;;
45039;SDS011;30778;53.574;7.770;2022-12-11T03:55:27;39.88;;;10.30;;
45039;SDS011;30778;53.574;7.770;2022-12-11T03:57:54;36.13;;;10.10;;
45039;SDS011;30778;53.574;7.770;2022-12-11T04:00:20;34.22;;;9.88;;
45039;SDS011;30778;53.574;7.770;2022-12-11T04:02:46;37.92;;;11.18;;
45039;SDS011;30778;53.574;7.770;2022-12-11T04:05:31;30.73;;;9.27;;
45039;SDS011;30778;53.574;7.770;2022-12-11T04:07:57;22.83;;;10.32;;
45039;SDS011;30778;53.574;7.770;2022-12-11T04:10:22;37.38;;;11.10;;
45039;SDS011;30778;53.574;7.770;2022-12-11T04:12:48;43.55;;;11.80;;
45039;SDS011;30778;53.574;7.770;2022-12-11T04:15:14;35.38;;;10.55;;
45039;SDS011;30778;53.574;7.770;2022-12-11T04:17:39;37.60;;;11.23;;
45039;SDS011;30778;53.574;7.770;2022-12-11T04:20:23;33.35;;;10.18;;
45039;SDS011;30778;53.574;7.770;2022-12-11T04:23:12;33.10;;;11.32;;
45039;SDS011;30778;53.574;7.770;2022-12-11T04:26:08;35.30;;;11.57;;
45039;SDS011;30778;53.574;7.770;2022-12-11T04:28:35;28.88;;;9.40;;
45039;SDS011;30778;53.574;7.770;2022-12-11T04:31:02;25.08;;;9.07;;
45039;SDS011;30778;53.574;7.770;2022-12-11T04:33:27;31.05;;;9.63;;
45039;SDS011;30778;53.574;7.770;2022-12-11T04:35:53;35.65;;;10.90;;
45039;SDS011;30778;53.574;7.770;2022-12-11T04:38:22;34.78;;;8.02;;
45039;SDS011;30778;53.574;7.770;2022-12-11T04:40:47;35.15;;;8.98;;
45039;SDS011;30778;53.574;7.770;2022-12-11T04:43:12;20.83;;;6.95;;
45039;SDS011;30778;53.574;7.770;2022-12-11T04:45:38;24.60;;;8.23;;
45039;SDS011;30778;53.574;7.770;2022-12-11T04:48:03;30.73;;;8.38;;
45039;SDS011;30778;53.574;7.770;2022-12-11T04:50:29;26.30;;;8.63;;
45039;SDS011;30778;53.574;7.770;2022-12-11T04:52:55;22.10;;;8.63;;
45039;SDS011;30778;53.574;7.770;2022-12-11T04:55:21;31.45;;;8.45;;
45039;SDS011;30778;53.574;7.770;2022-12-11T04:57:47;31.10;;;9.60;;
45039;SDS011;30778;53.574;7.770;2022-12-11T05:00:12;23.60;;;8.40;;
45039;SDS011;30778;53.574;7.770;2022-12-11T05:02:38;29.38;;;8.68;;
45039;SDS011;30778;53.574;7.770;2022-12-11T05:05:05;33.00;;;9.23;;
45039;SDS011;30778;53.574;7.770;2022-12-11T05:07:33;23.42;;;8.25;;
45039;SDS011;30778;53.574;7.770;2022-12-11T05:09:59;25.17;;;7.15;;
45039;SDS011;30778;53.574;7.770;2022-12-11T05:12:25;31.13;;;8.82;;
45039;SDS011;30778;53.574;7.770;2022-12-11T05:14:54;30.60;;;7.85;;
45039;SDS011;30778;53.574;7.770;2022-12-11T05:17:19;22.83;;;8.13;;
45039;SDS011;30778;53.574;7.770;2022-12-11T05:19:46;25.50;;;7.63;;
45039;SDS011;30778;53.574;7.770;2022-12-11T05:22:14;32.33;;;8.55;;
45039;SDS011;30778;53.574;7.770;2022-12-11T05:24:39;28.30;;;8.10;;
45039;SDS011;30778;53.574;7.770;2022-12-11T05:27:05;23.83;;;8.15;;
45039;SDS011;30778;53.574;7.770;2022-12-11T05:29:31;23.65;;;8.25;;
45039;SDS011;30778;53.574;7.770;2022-12-11T05:31:56;20.92;;;7.88;;
45039;SDS011;30778;53.574;7.770;2022-12-11T05:34:21;21.92;;;7.25;;
45039;SDS011;30778;53.574;7.770;2022-12-11T05:36:47;24.63;;;7.00;;
45039;SDS011;30778;53.574;7.770;2022-12-11T05:39:12;27.30;;;8.90;;
45039;SDS011;30778;53.574;7.770;2022-12-11T05:41:38;21.67;;;6.78;;
45039;SDS011;30778;53.574;7.770;2022-12-11T05:44:04;23.55;;;6.75;;
45039;SDS011;30778;53.574;7.770;2022-12-11T05:46:29;25.02;;;6.90;;
45039;SDS011;30778;53.574;7.770;2022-12-11T05:48:56;24.08;;;7.75;;
45039;SDS011;30778;53.574;7.770;2022-12-11T05:51:24;24.92;;;6.97;;
45039;SDS011;30778;53.574;7.770;2022-12-11T05:53:50;25.75;;;6.68;;
45039;SDS011;30778;53.574;7.770;2022-12-11T05:56:18;19.20;;;7.35;;
45039;SDS011;30778;53.574;7.770;2022-12-11T05:58:45;21.67;;;6.80;;
45039;SDS011;30778;53.574;7.770;2022-12-11T06:01:13;26.80;;;7.40;;
45039;SDS011;30778;53.574;7.770;2022-12-11T06:06:09;18.88;;;6.45;;
45039;SDS011;30778;53.574;7.770;2022-12-11T06:08:35;20.10;;;6.47;;
45039;SDS011;30778;53.574;7.770;2022-12-11T06:11:00;21.52;;;6.97;;
45039;SDS011;30778;53.574;7.770;2022-12-11T06:13:26;20.20;;;7.25;;
45039;SDS011;30778;53.574;7.770;2022-12-11T06:15:52;23.08;;;7.10;;
45039;SDS011;30778;53.574;7.770;2022-12-11T06:18:18;22.27;;;7.97;;
45039;SDS011;30778;53.574;7.770;2022-12-11T06:20:43;25.92;;;8.70;;
45039;SDS011;30778;53.574;7.770;2022-12-11T06:23:09;18.55;;;6.55;;
45039;SDS011;30778;53.574;7.770;2022-12-11T06:25:36;30.98;;;8.60;;
45039;SDS011;30778;53.574;7.770;2022-12-11T06:28:02;32.63;;;8.55;;
45039;SDS011;30778;53.574;7.770;2022-12-11T06:30:28;32.33;;;8.20;;
45039;SDS011;30778;53.574;7.770;2022-12-11T06:32:53;26.98;;;7.70;;
45039;SDS011;30778;53.574;7.770;2022-12-11T06:35:19;17.63;;;6.90;;
45039;SDS011;30778;53.574;7.770;2022-12-11T06:37:44;24.13;;;7.88;;
45039;SDS011;30778;53.574;7.770;2022-12-11T06:40:10;18.80;;;7.10;;
45039;SDS011;30778;53.574;7.770;2022-12-11T06:42:37;17.45;;;8.20;;
45039;SDS011;30778;53.574;7.770;2022-12-11T06:45:03;21.80;;;7.82;;
45039;SDS011;30778;53.574;7.770;2022-12-11T06:47:28;20.60;;;7.97;;
45039;SDS011;30778;53.574;7.770;2022-12-11T06:49:54;24.50;;;7.82;;
45039;SDS011;30778;53.574;7.770;2022-12-11T06:52:21;23.38;;;7.15;;
45039;SDS011;30778;53.574;7.770;2022-12-11T06:54:47;23.92;;;6.60;;
45039;SDS011;30778;53.574;7.770;2022-12-11T06:57:13;20.70;;;7.30;;
45039;SDS011;30778;53.574;7.770;2022-12-11T06:59:39;15.20;;;6.10;;
45039;SDS011;30778;53.574;7.770;2022-12-11T07:02:05;20.00;;;8.18;;
45039;SDS011;30778;53.574;7.770;2022-12-11T07:04:31;25.80;;;7.40;;
45039;SDS011;30778;53.574;7.770;2022-12-11T07:06:56;22.42;;;6.97;;
45039;SDS011;30778;53.574;7.770;2022-12-11T07:09:22;20.67;;;7.30;;
45039;SDS011;30778;53.574;7.770;2022-12-11T07:11:49;17.95;;;7.80;;
45039;SDS011;30778;53.574;7.770;2022-12-11T07:14:15;19.92;;;7.75;;
45039;SDS011;30778;53.574;7.770;2022-12-11T07:16:41;18.98;;;6.85;;
45039;SDS011;30778;53.574;7.770;2022-12-11T07:19:06;16.40;;;6.88;;
45039;SDS011;30778;53.574;7.770;2022-12-11T07:21:32;19.70;;;7.38;;
45039;SDS011;30778;53.574;7.770;2022-12-11T07:23:57;28.73;;;7.90;;
45039;SDS011;30778;53.574;7.770;2022-12-11T07:26:23;22.55;;;7.70;;
45039;SDS011;30778;53.574;7.770;2022-12-11T07:28:48;22.10;;;8.50;;
45039;SDS011;30778;53.574;7.770;2022-12-11T07:31:15;23.67;;;8.02;;
45039;SDS011;30778;53.574;7.770;2022-12-11T07:33:43;20.73;;;8.18;;
45039;SDS011;30778;53.574;7.770;2022-12-11T07:36:09;22.80;;;7.10;;
45039;SDS011;30778;53.574;7.770;2022-12-11T07:38:36;26.85;;;8.15;;
45039;SDS011;30778;53.574;7.770;2022-12-11T07:41:03;18.00;;;6.40;;
45039;SDS011;30778;53.574;7.770;2022-12-11T07:43:30;17.95;;;6.57;;
45039;SDS011;30778;53.574;7.770;2022-12-11T07:46:00;26.33;;;6.43;;
45039;SDS011;30778;53.574;7.770;2022-12-11T07:48:26;33.40;;;8.85;;
45039;SDS011;30778;53.574;7.770;2022-12-11T07:50:51;18.65;;;6.78;;
45039;SDS011;30778;53.574;7.770;2022-12-11T07:53:17;23.52;;;7.07;;
45039;SDS011;30778;53.574;7.770;2022-12-11T07:55:42;18.38;;;7.22;;
45039;SDS011;30778;53.574;7.770;2022-12-11T07:58:08;20.52;;;7.55;;
45039;SDS011;30778;53.574;7.770;2022-12-11T08:00:33;24.48;;;7.68;;
45039;SDS011;30778;53.574;7.770;2022-12-11T08:02:59;19.98;;;7.25;;
45039;SDS011;30778;53.574;7.770;2022-12-11T08:05:24;14.73;;;5.55;;
45039;SDS011;30778;53.574;7.770;2022-12-11T08:07:49;15.98;;;5.75;;
45039;SDS011;30778;53.574;7.770;2022-12-11T08:10:15;12.32;;;4.88;;
45039;SDS011;30778;53.574;7.770;2022-12-11T08:12:40;28.65;;;6.60;;
45039;SDS011;30778;53.574;7.770;2022-12-11T08:15:06;18.17;;;6.25;;
45039;SDS011;30778;53.574;7.770;2022-12-11T08:17:32;16.25;;;5.28;;
45039;SDS011;30778;53.574;7.770;2022-12-11T08:20:02;17.10;;;5.63;;
45039;SDS011;30778;53.574;7.770;2022-12-11T08:22:29;22.60;;;6.90;;
45039;SDS011;30778;53.574;7.770;2022-12-11T08:24:54;17.10;;;7.45;;
45039;SDS011;30778;53.574;7.770;2022-12-11T08:27:20;21.73;;;7.00;;
45039;SDS011;30778;53.574;7.770;2022-12-11T08:29:45;17.23;;;5.22;;
45039;SDS011;30778;53.574;7.770;2022-12-11T08:32:11;14.50;;;5.35;;
45039;SDS011;30778;53.574;7.770;2022-12-11T08:34:38;12.98;;;5.03;;
45039;SDS011;30778;53.574;7.770;2022-12-11T08:37:04;17.02;;;5.55;;
45039;SDS011;30778;53.574;7.770;2022-12-11T08:39:29;17.30;;;4.57;;
45039;SDS011;30778;53.574;7.770;2022-12-11T08:41:55;15.63;;;5.30;;
45039;SDS011;30778;53.574;7.770;2022-12-11T08:44:21;16.23;;;6.22;;
45039;SDS011;30778;53.574;7.770;2022-12-11T08:46:49;17.50;;;6.10;;
45039;SDS011;30778;53.574;7.770;2022-12-11T08:49:14;15.77;;;5.22;;
45039;SDS011;30778;53.574;7.770;2022-12-11T08:51:40;12.82;;;5.38;;
45039;SDS011;30778;53.574;7.770;2022-12-11T08:54:05;18.35;;;5.50;;
45039;SDS011;30778;53.574;7.770;2022-12-11T08:56:31;14.95;;;5.00;;
45039;SDS011;30778;53.574;7.770;2022-12-11T08:58:59;19.33;;;5.88;;
45039;SDS011;30778;53.574;7.770;2022-12-11T09:01:25;12.45;;;4.82;;
45039;SDS011;30778;53.574;7.770;2022-12-11T09:03:52;17.20;;;5.85;;
45039;SDS011;30778;53.574;7.770;2022-12-11T09:06:20;15.35;;;4.60;;
45039;SDS011;30778;53.574;7.770;2022-12-11T09:08:48;14.23;;;5.57;;
45039;SDS011;30778;53.574;7.770;2022-12-11T09:11:17;14.50;;;5.88;;
45039;SDS011;30778;53.574;7.770;2022-12-11T09:13:44;16.35;;;4.85;;
45039;SDS011;30778;53.574;7.770;2022-12-11T09:16:11;13.73;;;5.80;;
45039;SDS011;30778;53.574;7.770;2022-12-11T09:18:39;15.73;;;5.03;;
45039;SDS011;30778;53.574;7.770;2022-12-11T09:21:06;18.75;;;6.07;;
45039;SDS011;30778;53.574;7.770;2022-12-11T09:23:33;12.90;;;5.40;;
45039;SDS011;30778;53.574;7.770;2022-12-11T09:25:59;20.05;;;6.75;;
45039;SDS011;30778;53.574;7.770;2022-12-11T09:28:27;17.98;;;5.10;;
45039;SDS011;30778;53.574;7.770;2022-12-11T09:30:52;16.63;;;5.75;;
45039;SDS011;30778;53.574;7.770;2022-12-11T09:33:18;18.10;;;6.00;;
45039;SDS011;30778;53.574;7.770;2022-12-11T09:35:43;17.65;;;5.38;;
45039;SDS011;30778;53.574;7.770;2022-12-11T09:38:09;14.25;;;5.22;;
45039;SDS011;30778;53.574;7.770;2022-12-11T09:40:40;20.27;;;5.90;;
45039;SDS011;30778;53.574;7.770;2022-12-11T09:46:09;15.25;;;4.95;;
45039;SDS011;30778;53.574;7.770;2022-12-11T09:48:37;12.43;;;5.47;;
45039;SDS011;30778;53.574;7.770;2022-12-11T09:51:20;14.67;;;5.70;;
45039;SDS011;30778;53.574;7.770;2022-12-11T09:53:52;13.38;;;4.38;;
45039;SDS011;30778;53.574;7.770;2022-12-11T09:56:21;18.67;;;5.60;;
45039;SDS011;30778;53.574;7.770;2022-12-11T10:01:37;17.70;;;4.40;;
45039;SDS011;30778;53.574;7.770;2022-12-11T10:09:21;18.67;;;7.03;;
45039;SDS011;30778;53.574;7.770;2022-12-11T10:17:24;20.10;;;5.60;;
45039;SDS011;30778;53.574;7.770;2022-12-11T10:19:55;14.38;;;4.70;;
45039;SDS011;30778;53.574;7.770;2022-12-11T10:27:30;13.25;;;5.32;;
45039;SDS011;30778;53.574;7.770;2022-12-11T10:35:24;16.65;;;4.85;;
45039;SDS011;30778;53.574;7.770;2022-12-11T10:37:53;14.00;;;5.82;;
45039;SDS011;30778;53.574;7.770;2022-12-11T10:40:21;12.45;;;4.82;;
45039;SDS011;30778;53.574;7.770;2022-12-11T10:42:53;16.17;;;5.05;;
45039;SDS011;30778;53.574;7.770;2022-12-11T10:45:19;21.13;;;6.30;;
45039;SDS011;30778;53.574;7.770;2022-12-11T10:47:45;14.40;;;4.93;;
45039;SDS011;30778;53.574;7.770;2022-12-11T10:50:21;14.30;;;5.57;;
45039;SDS011;30778;53.574;7.770;2022-12-11T10:52:48;17.15;;;5.72;;
45039;SDS011;30778;53.574;7.770;2022-12-11T10:55:18;14.25;;;6.03;;
45039;SDS011;30778;53.574;7.770;2022-12-11T10:57:52;15.25;;;5.55;;
45039;SDS011;30778;53.574;7.770;2022-12-11T11:00:27;16.40;;;4.75;;
45039;SDS011;30778;53.574;7.770;2022-12-11T11:03:02;13.77;;;5.22;;
45039;SDS011;30778;53.574;7.770;2022-12-11T11:06:05;16.00;;;5.10;;
45039;SDS011;30778;53.574;7.770;2022-12-11T11:08:49;14.48;;;4.82;;
45039;SDS011;30778;53.574;7.770;2022-12-11T11:13:49;17.05;;;4.95;;
45039;SDS011;30778;53.574;7.770;2022-12-11T11:16:17;15.23;;;6.57;;
45039;SDS011;30778;53.574;7.770;2022-12-11T11:18:52;18.38;;;5.63;;
45039;SDS011;30778;53.574;7.770;2022-12-11T11:21:23;16.73;;;5.75;;
45039;SDS011;30778;53.574;7.770;2022-12-11T11:23:51;16.10;;;5.63;;
45039;SDS011;30778;53.574;7.770;2022-12-11T11:26:18;14.82;;;6.70;;
45039;SDS011;30778;53.574;7.770;2022-12-11T11:28:49;15.82;;;5.20;;
45039;SDS011;30778;53.574;7.770;2022-12-11T11:31:20;13.00;;;5.15;;
45039;SDS011;30778;53.574;7.770;2022-12-11T11:33:56;17.20;;;5.47;;
45039;SDS011;30778;53.574;7.770;2022-12-11T11:36:26;14.43;;;5.63;;
45039;SDS011;30778;53.574;7.770;2022-12-11T11:44:31;14.27;;;5.38;;
45039;SDS011;30778;53.574;7.770;2022-12-11T11:47:12;20.48;;;6.80;;
45039;SDS011;30778;53.574;7.770;2022-12-11T11:49:47;13.80;;;6.00;;
45039;SDS011;30778;53.574;7.770;2022-12-11T11:54:51;23.08;;;7.25;;
45039;SDS011;30778;53.574;7.770;2022-12-11T11:57:26;20.83;;;6.72;;
45039;SDS011;30778;53.574;7.770;2022-12-11T12:00:06;16.70;;;4.85;;
45039;SDS011;30778;53.574;7.770;2022-12-11T12:02:45;12.80;;;5.00;;
45039;SDS011;30778;53.574;7.770;2022-12-11T12:05:13;15.23;;;6.10;;
45039;SDS011;30778;53.574;7.770;2022-12-11T12:13:30;19.02;;;6.43;;
45039;SDS011;30778;53.574;7.770;2022-12-11T12:16:03;15.27;;;6.13;;
45039;SDS011;30778;53.574;7.770;2022-12-11T12:21:33;14.10;;;5.47;;
45039;SDS011;30778;53.574;7.770;2022-12-11T12:26:40;21.20;;;6.82;;
45039;SDS011;30778;53.574;7.770;2022-12-11T12:29:21;19.25;;;6.25;;
45039;SDS011;30778;53.574;7.770;2022-12-11T12:45:44;13.65;;;5.82;;
45039;SDS011;30778;53.574;7.770;2022-12-11T12:48:20;15.20;;;6.70;;
45039;SDS011;30778;53.574;7.770;2022-12-11T12:50:48;18.17;;;6.10;;
45039;SDS011;30778;53.574;7.770;2022-12-11T12:53:16;12.77;;;5.35;;
45039;SDS011;30778;53.574;7.770;2022-12-11T12:55:45;24.23;;;7.43;;
45039;SDS011;30778;53.574;7.770;2022-12-11T12:58:26;21.15;;;6.82;;
45039;SDS011;30778;53.574;7.770;2022-12-11T13:00:52;17.48;;;6.93;;
45039;SDS011;30778;53.574;7.770;2022-12-11T13:03:22;14.68;;;5.25;;
45039;SDS011;30778;53.574;7.770;2022-12-11T13:11:07;17.77;;;6.03;;
45039;SDS011;30778;53.574;7.770;2022-12-11T13:13:37;19.35;;;6.70;;
45039;SDS011;30778;53.574;7.770;2022-12-11T13:18:39;21.90;;;7.10;;
45039;SDS011;30778;53.574;7.770;2022-12-11T13:23:50;16.80;;;5.88;;
45039;SDS011;30778;53.574;7.770;2022-12-11T13:26:37;19.70;;;5.88;;
45039;SDS011;30778;53.574;7.770;2022-12-11T13:29:01;23.95;;;7.13;;
45039;SDS011;30778;53.574;7.770;2022-12-11T13:31:32;15.80;;;5.57;;
45039;SDS011;30778;53.574;7.770;2022-12-11T13:34:07;20.45;;;6.68;;
45039;SDS011;30778;53.574;7.770;2022-12-11T13:36:40;10.90;;;5.10;;
45039;SDS011;30778;53.574;7.770;2022-12-11T13:39:16;12.07;;;4.57;;
45039;SDS011;30778;53.574;7.770;2022-12-11T13:44:20;18.20;;;4.05;;
45039;SDS011;30778;53.574;7.770;2022-12-11T13:46:50;17.38;;;5.22;;
45039;SDS011;30778;53.574;7.770;2022-12-11T13:49:19;17.10;;;5.90;;
45039;SDS011;30778;53.574;7.770;2022-12-11T13:51:51;17.42;;;5.15;;
45039;SDS011;30778;53.574;7.770;2022-12-11T13:54:18;14.18;;;5.85;;
45039;SDS011;30778;53.574;7.770;2022-12-11T13:56:54;14.73;;;4.70;;
45039;SDS011;30778;53.574;7.770;2022-12-11T14:01:58;22.00;;;6.32;;
45039;SDS011;30778;53.574;7.770;2022-12-11T14:04:28;14.85;;;5.75;;
45039;SDS011;30778;53.574;7.770;2022-12-11T14:06:55;12.65;;;5.78;;
45039;SDS011;30778;53.574;7.770;2022-12-11T14:09:23;25.88;;;9.15;;
45039;SDS011;30778;53.574;7.770;2022-12-11T14:11:50;15.73;;;5.60;;
45039;SDS011;30778;53.574;7.770;2022-12-11T14:14:22;19.23;;;5.93;;
45039;SDS011;30778;53.574;7.770;2022-12-11T14:16:51;14.50;;;5.07;;
45039;SDS011;30778;53.574;7.770;2022-12-11T14:19:18;18.92;;;6.75;;
45039;SDS011;30778;53.574;7.770;2022-12-11T14:24:50;17.50;;;6.00;;
45039;SDS011;30778;53.574;7.770;2022-12-11T14:27:17;14.77;;;5.35;;
45039;SDS011;30778;53.574;7.770;2022-12-11T14:29:43;22.23;;;7.15;;
45039;SDS011;30778;53.574;7.770;2022-12-11T14:32:25;16.15;;;5.88;;
45039;SDS011;30778;53.574;7.770;2022-12-11T14:34:52;16.75;;;5.85;;
45039;SDS011;30778;53.574;7.770;2022-12-11T14:37:20;19.90;;;6.22;;
45039;SDS011;30778;53.574;7.770;2022-12-11T14:42:19;18.17;;;5.45;;
45039;SDS011;30778;53.574;7.770;2022-12-11T14:47:52;25.23;;;7.80;;
45039;SDS011;30778;53.574;7.770;2022-12-11T14:50:26;16.48;;;6.47;;
45039;SDS011;30778;53.574;7.770;2022-12-11T14:53:07;16.00;;;5.05;;
45039;SDS011;30778;53.574;7.770;2022-12-11T14:55:38;23.58;;;6.72;;
45039;SDS011;30778;53.574;7.770;2022-12-11T14:58:14;14.43;;;5.45;;
45039;SDS011;30778;53.574;7.770;2022-12-11T15:01:02;28.50;;;7.30;;
45039;SDS011;30778;53.574;7.770;2022-12-11T15:03:44;21.50;;;6.97;;
45039;SDS011;30778;53.574;7.770;2022-12-11T15:06:21;22.75;;;6.07;;
45039;SDS011;30778;53.574;7.770;2022-12-11T15:12:10;17.17;;;6.03;;
45039;SDS011;30778;53.574;7.770;2022-12-11T15:14:49;20.80;;;6.93;;
45039;SDS011;30778;53.574;7.770;2022-12-11T15:17:17;17.35;;;6.07;;
45039;SDS011;30778;53.574;7.770;2022-12-11T15:19:54;15.68;;;5.88;;
45039;SDS011;30778;53.574;7.770;2022-12-11T15:22:26;14.98;;;6.68;;
45039;SDS011;30778;53.574;7.770;2022-12-11T15:24:55;25.88;;;7.88;;
45039;SDS011;30778;53.574;7.770;2022-12-11T15:27:29;18.40;;;6.88;;
45039;SDS011;30778;53.574;7.770;2022-12-11T15:29:59;21.65;;;7.85;;
45039;SDS011;30778;53.574;7.770;2022-12-11T15:32:25;20.80;;;7.05;;
45039;SDS011;30778;53.574;7.770;2022-12-11T15:34:52;15.10;;;6.78;;
45039;SDS011;30778;53.574;7.770;2022-12-11T15:37:23;21.88;;;7.60;;
45039;SDS011;30778;53.574;7.770;2022-12-11T15:39:48;15.65;;;7.18;;
45039;SDS011;30778;53.574;7.770;2022-12-11T15:42:15;25.92;;;11.25;;
45039;SDS011;30778;53.574;7.770;2022-12-11T15:44:48;28.52;;;8.82;;
45039;SDS011;30778;53.574;7.770;2022-12-11T15:47:14;22.85;;;7.90;;
45039;SDS011;30778;53.574;7.770;2022-12-11T15:49:44;18.35;;;7.65;;
45039;SDS011;30778;53.574;7.770;2022-12-11T15:52:09;20.33;;;7.53;;
45039;SDS011;30778;53.574;7.770;2022-12-11T15:54:36;24.55;;;8.77;;
45039;SDS011;30778;53.574;7.770;2022-12-11T15:57:03;36.00;;;14.80;;
45039;SDS011;30778;53.574;7.770;2022-12-11T15:59:30;20.20;;;8.77;;
45039;SDS011;30778;53.574;7.770;2022-12-11T16:01:57;32.83;;;12.52;;
45039;SDS011;30778;53.574;7.770;2022-12-11T16:04:22;20.33;;;7.95;;
45039;SDS011;30778;53.574;7.770;2022-12-11T16:06:48;28.58;;;10.50;;
45039;SDS011;30778;53.574;7.770;2022-12-11T16:09:13;24.98;;;9.32;;
45039;SDS011;30778;53.574;7.770;2022-12-11T16:11:39;24.50;;;8.77;;
45039;SDS011;30778;53.574;7.770;2022-12-11T16:14:04;39.17;;;16.10;;
45039;SDS011;30778;53.574;7.770;2022-12-11T16:16:32;63.65;;;25.25;;
45039;SDS011;30778;53.574;7.770;2022-12-11T16:18:57;40.45;;;19.77;;
45039;SDS011;30778;53.574;7.770;2022-12-11T16:21:23;26.80;;;11.50;;
45039;SDS011;30778;53.574;7.770;2022-12-11T16:23:48;29.30;;;9.55;;
45039;SDS011;30778;53.574;7.770;2022-12-11T16:26:14;25.25;;;8.35;;
45039;SDS011;30778;53.574;7.770;2022-12-11T16:28:40;33.67;;;10.63;;
45039;SDS011;30778;53.574;7.770;2022-12-11T16:31:13;24.73;;;8.30;;
45039;SDS011;30778;53.574;7.770;2022-12-11T16:33:41;19.45;;;6.30;;